Time;durP1;ratioP1;P1;durP2;ratioP2;P2;SDS_P1;SDS_P2;PMS_P1;PMS_P2;Temp;Humidity;BMP_temperature;BMP_pressure;BME280_temperature;BME280_humidity;BME280_pressure;Samples;Min_cycle;Max_cycle;Signal;HPM_P1;HPM_P2
2023/10/05 00:03:38;;;;;;;3.03;2.47;;;14.80;48.10;;;;;;20473;6853;309944;-77
2023/10/05 00:06:13;;;;;;;2.37;2.17;;;14.70;48.20;;;;;;20672;6853;117584;-77
2023/10/05 00:08:35;;;;;;;3.17;2.40;;;14.30;48.60;;;;;;20654;6853;120293;-77
2023/10/05 00:11:00;;;;;;;3.10;2.57;;;14.30;48.60;;;;;;20430;6853;311197;-77
2023/10/05 00:13:23;;;;;;;2.70;2.50;;;14.30;49.00;;;;;;20466;6853;284541;-77
2023/10/05 00:15:50;;;;;;;2.97;2.60;;;14.60;49.00;;;;;;20467;6853;312780;-76
2023/10/05 00:18:19;;;;;;;2.30;2.20;;;14.80;48.60;;;;;;20674;6853;118908;-77
2023/10/05 00:20:41;;;;;;;3.33;2.65;;;14.60;48.60;;;;;;20459;6853;285301;-76
2023/10/05 00:23:09;;;;;;;2.90;2.50;;;14.50;48.80;;;;;;20440;6853;279429;-77
2023/10/05 00:25:32;;;;;;;3.27;2.80;;;14.70;48.60;;;;;;20452;6853;309527;-77
2023/10/05 00:27:57;;;;;;;3.40;2.58;;;14.80;48.20;;;;;;20470;6853;309977;-76
2023/10/05 00:30:23;;;;;;;4.03;2.80;;;14.90;47.90;;;;;;20482;6853;279539;-76
2023/10/05 00:32:55;;;;;;;3.08;2.70;;;14.90;47.80;;;;;;20461;6853;310480;-76
2023/10/05 00:35:23;;;;;;;2.78;2.58;;;15.00;47.80;;;;;;20462;6853;279595;-76
2023/10/05 00:37:42;;;;;;;2.70;2.50;;;15.00;47.70;;;;;;20402;6853;283562;-76
2023/10/05 00:40:10;;;;;;;3.20;3.00;;;15.00;47.60;;;;;;20453;6853;279700;-76
2023/10/05 00:42:31;;;;;;;3.17;2.90;;;14.90;47.80;;;;;;20443;6851;303825;-76
2023/10/05 00:45:01;;;;;;;2.43;2.23;;;14.90;47.80;;;;;;20642;6852;121429;-79
2023/10/05 00:47:23;;;;;;;5.35;2.30;;;14.60;48.20;;;;;;20666;6852;117479;-82
2023/10/05 00:49:53;;;;;;;2.40;2.25;;;13.80;49.40;;;;;;20673;6852;118946;-78
2023/10/05 00:52:24;;;;;;;3.00;2.80;;;13.80;49.40;;;;;;20459;6852;280067;-77
2023/10/05 00:54:51;;;;;;;3.20;2.90;;;14.20;49.50;;;;;;20443;6853;283328;-76
2023/10/05 00:57:19;;;;;;;2.47;2.27;;;14.20;49.40;;;;;;20670;6853;119966;-77
2023/10/05 00:59:44;;;;;;;3.72;2.72;;;14.10;49.40;;;;;;20666;6853;118444;-77
2023/10/05 01:02:21;;;;;;;2.60;2.50;;;13.80;49.70;;;;;;20667;6853;117896;-77
2023/10/05 01:07:19;;;;;;;3.30;3.00;;;13.70;50.20;;;;;;20679;6853;117670;-77
2023/10/05 01:12:38;;;;;;;3.85;3.28;;;13.80;50.10;;;;;;20458;6853;308833;-77
2023/10/05 01:15:05;;;;;;;3.83;3.50;;;14.10;49.70;;;;;;20436;6853;313180;-77
2023/10/05 01:17:28;;;;;;;3.50;3.20;;;14.40;49.30;;;;;;20657;6853;119141;-77
2023/10/05 01:19:55;;;;;;;4.12;2.97;;;14.20;49.40;;;;;;20680;6853;120591;-77
2023/10/05 01:22:21;;;;;;;5.82;3.70;;;13.90;49.90;;;;;;20456;6853;278736;-77
2023/10/05 01:24:45;;;;;;;5.80;2.97;;;13.90;49.90;;;;;;20670;6853;119446;-79
2023/10/05 01:27:11;;;;;;;4.90;3.10;;;13.90;50.00;;;;;;20662;6853;118625;-79
2023/10/05 01:29:36;;;;;;;2.95;2.75;;;13.60;50.40;;;;;;20677;6853;119060;-77
2023/10/05 01:32:02;;;;;;;4.90;3.33;;;13.40;50.60;;;;;;20463;6853;281980;-76
2023/10/05 01:34:27;;;;;;;4.10;3.70;;;13.60;50.60;;;;;;20459;6853;314458;-77
2023/10/05 01:36:53;;;;;;;5.90;3.63;;;13.90;50.10;;;;;;20440;6853;313216;-77
2023/10/05 01:39:21;;;;;;;4.00;3.55;;;14.20;49.50;;;;;;20455;6853;310457;-76
2023/10/05 01:41:47;;;;;;;3.30;3.00;;;14.40;49.10;;;;;;20668;6853;125990;-77
2023/10/05 01:44:10;;;;;;;4.00;3.10;;;14.20;49.30;;;;;;20664;6853;118967;-77
2023/10/05 01:46:36;;;;;;;3.87;2.50;;;13.80;49.70;;;;;;20691;6853;117552;-77
2023/10/05 01:49:01;;;;;;;3.90;3.40;;;13.60;50.40;;;;;;20460;6853;317191;-77
2023/10/05 01:51:28;;;;;;;3.47;3.20;;;13.70;50.70;;;;;;20687;6853;118656;-77
2023/10/05 01:53:59;;;;;;;3.97;2.70;;;13.70;50.50;;;;;;20677;6851;119568;-76
2023/10/05 01:56:20;;;;;;;3.63;3.33;;;13.50;50.70;;;;;;20462;6852;282380;-77
2023/10/05 01:58:46;;;;;;;3.77;3.10;;;13.70;50.40;;;;;;20671;6852;117847;-77
2023/10/05 02:01:10;;;;;;;3.62;3.33;;;13.70;50.10;;;;;;20450;6852;279225;-77
2023/10/05 02:03:36;;;;;;;4.10;2.90;;;13.80;49.70;;;;;;20680;6852;118576;-77
2023/10/05 02:06:11;;;;;;;2.50;2.30;;;13.80;49.60;;;;;;20682;6853;119531;-77
2023/10/05 02:08:27;;;;;;;3.28;3.08;;;13.70;50.10;;;;;;20651;6853;123610;-77
2023/10/05 02:10:52;;;;;;;4.43;3.15;;;13.40;50.20;;;;;;20450;6853;343229;-76
2023/10/05 02:13:18;;;;;;;4.20;3.80;;;13.60;50.40;;;;;;20464;6853;279657;-77
2023/10/05 02:15:48;;;;;;;2.97;2.78;;;14.00;49.80;;;;;;20679;6853;117635;-77
2023/10/05 02:18:22;;;;;;;5.30;3.00;;;13.90;49.50;;;;;;20668;6853;118736;-77
2023/10/05 02:23:16;;;;;;;3.80;3.37;;;13.40;50.10;;;;;;20448;6853;279378;-77
2023/10/05 02:25:36;;;;;;;3.50;3.10;;;13.50;50.00;;;;;;20427;6853;330284;-77
2023/10/05 02:28:01;;;;;;;4.03;3.47;;;13.90;49.70;;;;;;20467;6853;307348;-77
2023/10/05 02:30:32;;;;;;;3.67;3.37;;;14.10;49.00;;;;;;20462;6853;311047;-77
2023/10/05 02:33:03;;;;;;;3.73;3.37;;;14.30;48.70;;;;;;20453;6853;283240;-77
2023/10/05 02:35:30;;;;;;;5.43;3.00;;;14.40;48.40;;;;;;20667;6853;117902;-77
2023/10/05 02:41:24;;;;;;;3.93;3.20;;;13.30;50.00;;;;;;20665;6853;118648;-77
2023/10/05 02:43:52;;;;;;;3.33;3.03;;;13.20;49.90;;;;;;20649;6853;116882;-77
2023/10/05 02:46:10;;;;;;;3.92;3.30;;;13.00;50.30;;;;;;20452;6853;279633;-77
2023/10/05 02:48:36;;;;;;;3.87;3.57;;;13.20;50.50;;;;;;20484;6853;309126;-77
2023/10/05 02:51:05;;;;;;;3.00;2.80;;;13.50;50.00;;;;;;20664;6853;119590;-77
2023/10/05 02:53:27;;;;;;;3.12;2.80;;;13.40;49.90;;;;;;20666;6853;118846;-77
2023/10/05 02:55:54;;;;;;;3.87;3.47;;;13.10;50.30;;;;;;20463;6853;278717;-77
2023/10/05 02:58:18;;;;;;;2.87;2.63;;;13.10;50.10;;;;;;20672;6853;121768;-77
2023/10/05 03:00:44;;;;;;;6.07;3.23;;;13.10;50.10;;;;;;20673;6853;117391;-77
2023/10/05 03:03:13;;;;;;;3.78;3.25;;;12.90;50.50;;;;;;20439;6853;309519;-77
2023/10/05 03:05:35;;;;;;;3.58;2.87;;;13.00;50.40;;;;;;20668;6851;118627;-78
2023/10/05 03:08:00;;;;;;;2.67;2.47;;;13.00;50.40;;;;;;20670;6852;122271;-77
2023/10/05 03:10:27;;;;;;;2.47;2.30;;;12.80;50.80;;;;;;20677;6852;119653;-77
2023/10/05 03:12:52;;;;;;;3.85;3.08;;;12.60;51.00;;;;;;20447;6852;279701;-78
2023/10/05 03:15:23;;;;;;;2.58;2.37;;;12.80;51.20;;;;;;20680;6852;118624;-78
2023/10/05 03:17:46;;;;;;;3.20;3.00;;;12.80;50.70;;;;;;20444;6853;308576;-79
2023/10/05 03:20:12;;;;;;;4.00;3.37;;;13.00;50.30;;;;;;20456;6853;307876;-77
2023/10/05 03:22:35;;;;;;;3.40;2.50;;;13.30;50.10;;;;;;20658;6853;122492;-77
2023/10/05 03:25:00;;;;;;;3.47;3.17;;;13.20;50.10;;;;;;20457;6853;309710;-78
2023/10/05 03:27:27;;;;;;;3.40;3.10;;;13.50;49.70;;;;;;20475;6853;312043;-77
2023/10/05 03:29:59;;;;;;;5.23;2.73;;;13.40;49.60;;;;;;20682;6853;119967;-77
2023/10/05 03:32:19;;;;;;;4.43;2.97;;;13.30;49.60;;;;;;20454;6853;283002;-77
2023/10/05 03:34:58;;;;;;;2.92;2.72;;;13.40;49.50;;;;;;20683;6853;119878;-77
2023/10/05 03:37:24;;;;;;;2.83;2.27;;;13.30;49.70;;;;;;20670;6853;117863;-77
2023/10/05 03:39:52;;;;;;;2.65;2.47;;;13.10;50.30;;;;;;20671;6853;117402;-77
2023/10/05 03:42:17;;;;;;;4.53;2.90;;;12.80;50.60;;;;;;20689;6853;119756;-76
2023/10/05 03:44:42;;;;;;;3.40;3.10;;;12.70;50.90;;;;;;20496;6853;312549;-74
2023/10/05 03:47:08;;;;;;;3.97;3.63;;;12.90;50.90;;;;;;20459;6853;310545;-74
2023/10/05 03:49:34;;;;;;;3.78;3.37;;;13.30;50.00;;;;;;20474;6853;308285;-74
2023/10/05 03:52:06;;;;;;;3.87;3.00;;;13.60;49.80;;;;;;20684;6853;118793;-74
2023/10/05 03:54:26;;;;;;;3.17;2.92;;;13.50;49.80;;;;;;20658;6853;117352;-77
2023/10/05 03:57:04;;;;;;;2.70;2.50;;;13.20;50.10;;;;;;20635;6853;119824;-73
2023/10/05 03:59:17;;;;;;;3.67;3.37;;;13.00;50.70;;;;;;20426;6853;309582;-74
2023/10/05 04:01:49;;;;;;;3.58;3.28;;;13.10;50.70;;;;;;20460;6853;308761;-74
2023/10/05 04:04:11;;;;;;;3.53;2.87;;;13.50;50.30;;;;;;20647;6853;118530;-74
2023/10/05 04:06:37;;;;;;;3.33;3.05;;;13.40;50.10;;;;;;20610;6853;117326;-73
2023/10/05 04:09:03;;;;;;;5.17;2.77;;;13.20;50.50;;;;;;20648;6853;118497;-75
2023/10/05 04:11:29;;;;;;;4.90;2.87;;;12.90;51.60;;;;;;20670;6853;122722;-74
2023/10/05 04:13:55;;;;;;;3.60;3.40;;;12.90;51.10;;;;;;20448;6853;332955;-74
2023/10/05 04:16:33;;;;;;;3.62;3.33;;;13.20;50.80;;;;;;20671;6853;117331;-74
2023/10/05 04:18:59;;;;;;;3.33;2.80;;;13.10;51.50;;;;;;20647;6851;122626;-73
2023/10/05 04:21:23;;;;;;;2.83;2.53;;;13.00;50.80;;;;;;20663;6852;123349;-74
2023/10/05 04:23:58;;;;;;;3.55;3.30;;;12.90;51.10;;;;;;20459;6852;310994;-73
2023/10/05 04:26:20;;;;;;;5.03;2.90;;;13.10;50.90;;;;;;20657;6852;118714;-75
2023/10/05 04:28:52;;;;;;;3.72;3.42;;;13.10;50.60;;;;;;20466;6853;279920;-77
2023/10/05 04:31:13;;;;;;;2.80;2.53;;;13.30;50.60;;;;;;20655;6853;117368;-74
2023/10/05 04:33:39;;;;;;;2.70;2.50;;;13.20;50.50;;;;;;20665;6853;118092;-74
2023/10/05 04:36:05;;;;;;;3.45;3.15;;;13.00;50.80;;;;;;20453;6853;307230;-75
2023/10/05 04:38:29;;;;;;;4.30;3.00;;;13.10;50.60;;;;;;20460;6853;279333;-74
2023/10/05 04:40:55;;;;;;;2.90;2.70;;;13.40;49.90;;;;;;20647;6853;133502;-73
2023/10/05 04:43:21;;;;;;;3.20;3.00;;;13.30;49.80;;;;;;20461;6853;308698;-74
2023/10/05 04:45:46;;;;;;;2.85;2.60;;;13.40;49.60;;;;;;20663;6853;117971;-74
2023/10/05 04:48:12;;;;;;;2.90;2.70;;;13.20;49.70;;;;;;20451;6853;309109;-74
2023/10/05 04:50:40;;;;;;;2.90;2.70;;;13.10;49.90;;;;;;20663;6853;118615;-73
2023/10/05 04:53:09;;;;;;;3.30;2.90;;;13.10;49.80;;;;;;20452;6853;280675;-78
2023/10/05 04:55:35;;;;;;;3.70;3.20;;;13.20;50.00;;;;;;20442;6853;309081;-74
2023/10/05 05:01:15;;;;;;;3.12;2.90;;;13.30;49.70;;;;;;20459;6853;309214;-73
2023/10/05 05:08:34;;;;;;;3.77;2.63;;;12.90;50.30;;;;;;20733;6853;117917;-74
2023/10/05 05:10:58;;;;;;;2.80;2.60;;;12.60;50.80;;;;;;20697;6853;116710;-78
2023/10/05 05:13:27;;;;;;;2.90;2.70;;;12.40;51.10;;;;;;20746;6853;118750;-74
2023/10/05 05:15:48;;;;;;;2.67;2.47;;;12.30;51.40;;;;;;20723;6853;122562;-75
2023/10/05 05:18:14;;;;;;;2.97;2.78;;;12.20;51.50;;;;;;20700;6853;117398;-76
2023/10/05 05:20:40;;;;;;;3.15;2.85;;;12.20;51.80;;;;;;20681;6853;117533;-75
2023/10/05 05:23:07;;;;;;;3.40;3.03;;;12.10;52.00;;;;;;20657;6853;118266;-75
2023/10/05 05:25:32;;;;;;;3.90;3.53;;;12.00;52.00;;;;;;20459;6853;308503;-77
2023/10/05 05:28:01;;;;;;;4.93;3.33;;;12.30;51.90;;;;;;20640;6853;118545;-74
2023/10/05 05:30:24;;;;;;;2.00;1.90;;;12.40;52.00;;;;;;20662;6851;117984;-74
2023/10/05 05:32:56;;;;;;;3.00;2.80;;;12.30;51.90;;;;;;20654;6852;127074;-77
2023/10/05 05:35:22;;;;;;;2.80;2.60;;;12.40;52.90;;;;;;20673;6852;117501;-76
2023/10/05 05:37:47;;;;;;;3.92;3.53;;;12.50;52.50;;;;;;20458;6852;280770;-77
2023/10/05 05:40:13;;;;;;;3.07;2.87;;;12.80;51.40;;;;;;20671;6853;117384;-76
2023/10/05 05:42:39;;;;;;;3.40;3.20;;;12.80;51.10;;;;;;20420;6866;343236;-76
2023/10/05 05:45:08;;;;;;;3.43;3.13;;;13.00;51.00;;;;;;20651;6853;119373;-77
2023/10/05 05:47:32;;;;;;;3.20;2.57;;;13.10;51.00;;;;;;20659;6853;120383;-75
2023/10/05 05:49:55;;;;;;;3.70;3.40;;;12.90;51.20;;;;;;20456;6853;336795;-76
2023/10/05 05:52:22;;;;;;;3.27;3.07;;;13.10;51.00;;;;;;20664;6853;118138;-76
2023/10/05 05:54:47;;;;;;;6.67;3.37;;;13.20;50.80;;;;;;20647;6853;117983;-77
2023/10/05 05:57:12;;;;;;;4.00;3.70;;;13.00;50.90;;;;;;20465;6853;279172;-77
2023/10/05 05:59:41;;;;;;;4.20;3.60;;;13.20;51.00;;;;;;20458;6853;312196;-76
2023/10/05 06:02:07;;;;;;;3.80;3.50;;;13.80;49.80;;;;;;20457;6853;312849;-76
2023/10/05 06:04:33;;;;;;;4.53;3.80;;;13.80;49.80;;;;;;20451;6853;313100;-76
2023/10/05 06:06:58;;;;;;;3.40;3.20;;;14.10;49.40;;;;;;20645;6853;119611;-77
2023/10/05 06:09:26;;;;;;;5.22;3.47;;;13.90;49.30;;;;;;20661;6853;123777;-76
2023/10/05 06:11:50;;;;;;;3.25;2.95;;;13.60;49.80;;;;;;20666;6853;117640;-76
2023/10/05 06:14:19;;;;;;;4.13;3.83;;;13.40;50.30;;;;;;20454;6853;313144;-76
2023/10/05 06:16:44;;;;;;;4.10;3.80;;;13.50;50.40;;;;;;20455;6853;310681;-76
2023/10/05 06:19:10;;;;;;;4.40;3.47;;;13.80;49.90;;;;;;20649;6853;119610;-77
2023/10/05 06:21:35;;;;;;;3.47;3.28;;;13.90;49.90;;;;;;20680;6853;118089;-77
2023/10/05 06:24:02;;;;;;;4.25;3.87;;;13.60;50.20;;;;;;20462;6853;308827;-77
2023/10/05 06:26:26;;;;;;;4.37;3.87;;;13.70;50.30;;;;;;20456;6853;314779;-76
2023/10/05 06:28:52;;;;;;;4.10;3.70;;;14.00;49.90;;;;;;20443;6853;338220;-77
2023/10/05 06:31:17;;;;;;;3.90;3.53;;;14.30;49.70;;;;;;20470;6853;281336;-77
2023/10/05 06:33:46;;;;;;;4.15;3.75;;;14.60;49.30;;;;;;20459;6853;312461;-76
2023/10/05 06:36:11;;;;;;;3.40;3.10;;;14.60;49.10;;;;;;20666;6853;117416;-76
2023/10/05 06:38:36;;;;;;;3.73;3.43;;;14.60;49.10;;;;;;20673;6853;118580;-76
2023/10/05 06:41:03;;;;;;;3.70;3.40;;;14.30;49.40;;;;;;20438;6851;309057;-77
2023/10/05 06:43:27;;;;;;;2.72;2.55;;;14.40;49.30;;;;;;20669;6852;118692;-77
2023/10/05 06:45:53;;;;;;;4.18;2.67;;;14.40;49.40;;;;;;20671;6852;117991;-77
2023/10/05 06:48:18;;;;;;;3.58;3.28;;;14.20;49.80;;;;;;20448;6852;309241;-76
2023/10/05 06:50:44;;;;;;;7.25;3.17;;;14.30;49.50;;;;;;20674;6852;117297;-77
2023/10/05 06:53:11;;;;;;;4.20;3.70;;;14.30;49.50;;;;;;20441;6853;312694;-77
2023/10/05 06:55:35;;;;;;;4.20;3.80;;;14.40;49.90;;;;;;20456;6853;280759;-76
2023/10/05 06:58:03;;;;;;;3.87;3.45;;;14.60;49.30;;;;;;20461;6853;322801;-76
2023/10/05 07:00:27;;;;;;;3.00;2.72;;;14.90;48.90;;;;;;20666;6853;117911;-76
2023/10/05 07:03:01;;;;;;;3.80;3.50;;;14.80;48.90;;;;;;20434;6853;307951;-77
2023/10/05 07:05:24;;;;;;;3.90;3.47;;;14.80;48.80;;;;;;20456;6853;283249;-76
2023/10/05 07:07:50;;;;;;;4.13;3.20;;;15.00;48.70;;;;;;20665;6853;117909;-76
2023/10/05 07:10:15;;;;;;;4.05;3.40;;;15.00;49.00;;;;;;20464;6853;280321;-76
2023/10/05 07:12:48;;;;;;;4.22;3.83;;;15.40;48.50;;;;;;20457;6853;314173;-75
2023/10/05 07:15:14;;;;;;;3.37;3.17;;;15.30;48.30;;;;;;20674;6853;123604;-77
2023/10/05 07:17:40;;;;;;;4.03;3.37;;;15.20;48.80;;;;;;20456;6853;312437;-76
2023/10/05 07:20:11;;;;;;;3.40;3.20;;;15.20;48.80;;;;;;20669;6853;121838;-76
2023/10/05 07:22:31;;;;;;;4.13;2.80;;;15.10;48.90;;;;;;20653;6853;118783;-77
2023/10/05 07:24:57;;;;;;;3.70;3.40;;;14.90;49.30;;;;;;20449;6853;308505;-77
2023/10/05 07:27:23;;;;;;;3.75;3.45;;;15.00;50.10;;;;;;20661;6853;118413;-77
2023/10/05 07:29:49;;;;;;;3.90;3.55;;;15.00;49.50;;;;;;20463;6853;322664;-76
2023/10/05 07:32:14;;;;;;;3.83;3.10;;;15.20;49.30;;;;;;20672;6853;117740;-77
2023/10/05 07:34:40;;;;;;;3.30;3.10;;;15.10;49.10;;;;;;20671;6853;118678;-76
2023/10/05 07:37:12;;;;;;;3.50;3.25;;;14.90;49.40;;;;;;20431;6853;308735;-77
2023/10/05 07:39:41;;;;;;;3.47;3.03;;;15.00;49.50;;;;;;20672;6853;118005;-77
2023/10/05 07:42:08;;;;;;;3.90;3.58;;;15.10;49.50;;;;;;20453;6853;338738;-77
2023/10/05 07:44:32;;;;;;;6.60;3.72;;;15.30;49.70;;;;;;20646;6853;118705;-77
2023/10/05 07:46:57;;;;;;;4.17;3.60;;;15.40;49.90;;;;;;20440;6853;304906;-77
2023/10/05 07:49:24;;;;;;;5.50;3.08;;;15.80;49.00;;;;;;20672;6853;117938;-77
2023/10/05 07:51:49;;;;;;;5.37;3.07;;;15.80;49.00;;;;;;20665;6851;117587;-77
2023/10/05 07:54:28;;;;;;;3.67;3.37;;;15.80;49.10;;;;;;20679;6852;117384;-77
2023/10/05 07:56:53;;;;;;;3.60;3.20;;;15.70;49.20;;;;;;20631;6852;117498;-77
2023/10/05 07:59:21;;;;;;;3.80;3.40;;;15.70;49.40;;;;;;20457;6852;311293;-77
2023/10/05 08:01:46;;;;;;;4.00;3.63;;;15.90;49.10;;;;;;20452;6852;308257;-76
2023/10/05 08:04:13;;;;;;;2.78;2.50;;;16.30;48.40;;;;;;20457;6853;312324;-77
2023/10/05 08:06:41;;;;;;;2.80;2.60;;;16.70;48.20;;;;;;20679;6853;117195;-81
2023/10/05 08:09:06;;;;;;;3.30;3.00;;;16.90;48.20;;;;;;20443;6853;310028;-79
2023/10/05 08:11:31;;;;;;;2.90;2.70;;;17.20;47.10;;;;;;20686;6853;119829;-78
2023/10/05 08:13:57;;;;;;;2.75;2.55;;;17.40;47.20;;;;;;20674;6853;119313;-78
2023/10/05 08:16:23;;;;;;;3.13;2.40;;;17.30;47.10;;;;;;20673;6853;117789;-76
2023/10/05 08:18:50;;;;;;;2.87;2.40;;;17.40;47.30;;;;;;20639;6853;118959;-75
2023/10/05 08:21:15;;;;;;;3.20;2.90;;;17.50;47.30;;;;;;20463;6853;295362;-75
2023/10/05 08:23:41;;;;;;;4.23;3.10;;;17.80;46.10;;;;;;20460;6853;311766;-77
2023/10/05 08:26:07;;;;;;;3.93;2.10;;;18.30;45.20;;;;;;20659;6853;118226;-75
2023/10/05 08:28:33;;;;;;;2.35;2.22;;;18.70;45.20;;;;;;20657;6853;118679;-75
2023/10/05 08:31:05;;;;;;;3.20;2.10;;;18.70;45.20;;;;;;20635;6853;119653;-76
2023/10/05 08:33:33;;;;;;;2.80;2.47;;;18.60;45.30;;;;;;20658;6853;119816;-75
2023/10/05 08:35:56;;;;;;;2.40;2.30;;;18.60;45.20;;;;;;20663;6853;117438;-75
2023/10/05 08:38:24;;;;;;;2.95;2.75;;;18.50;45.30;;;;;;20673;6853;118242;-75
2023/10/05 08:40:48;;;;;;;3.53;3.10;;;18.50;45.30;;;;;;20395;6853;280104;-75
2023/10/05 08:43:16;;;;;;;3.00;2.80;;;18.70;44.20;;;;;;20422;6853;336566;-75
2023/10/05 08:45:45;;;;;;;3.17;2.90;;;19.10;43.50;;;;;;20427;6853;309749;-76
2023/10/05 08:48:08;;;;;;;3.27;2.97;;;19.50;42.90;;;;;;20669;6853;117324;-76
2023/10/05 08:50:35;;;;;;;2.77;2.57;;;19.60;43.10;;;;;;20463;6853;340000;-75
2023/10/05 08:53:00;;;;;;;3.50;3.13;;;20.10;42.00;;;;;;20445;6853;279108;-75
2023/10/05 08:55:25;;;;;;;3.87;3.37;;;20.10;42.00;;;;;;20658;6853;119829;-75
2023/10/05 08:57:52;;;;;;;3.58;2.08;;;20.10;42.30;;;;;;20659;6853;117315;-75
2023/10/05 09:00:38;;;;;;;4.45;2.70;;;19.90;42.60;;;;;;20668;6853;118358;-77
2023/10/05 09:02:43;;;;;;;3.37;3.07;;;19.70;42.90;;;;;;20410;6853;279625;-77
2023/10/05 09:05:09;;;;;;;3.20;2.90;;;19.90;42.40;;;;;;20462;6851;280281;-79
2023/10/05 09:07:37;;;;;;;3.60;2.90;;;20.10;41.70;;;;;;20474;6852;316472;-77
2023/10/05 09:10:06;;;;;;;2.97;2.63;;;20.40;41.30;;;;;;20679;6852;117829;-77
2023/10/05 09:12:34;;;;;;;2.70;2.50;;;20.40;41.60;;;;;;20668;6852;117736;-77
2023/10/05 09:15:27;;;;;;;2.97;2.60;;;20.30;42.10;;;;;;20640;6853;120075;-77
2023/10/05 09:18:17;;;;;;;2.77;2.30;;;20.30;42.50;;;;;;20663;6853;119425;-77
2023/10/05 09:20:30;;;;;;;3.17;2.40;;;20.30;42.50;;;;;;20600;6853;117566;-77
2023/10/05 09:22:53;;;;;;;3.23;2.80;;;20.40;42.50;;;;;;20638;6853;117408;-77
2023/10/05 09:25:27;;;;;;;2.90;2.20;;;20.40;42.50;;;;;;20658;6853;118305;-81
2023/10/05 09:27:54;;;;;;;2.80;2.33;;;20.40;42.50;;;;;;20676;6853;117353;-84
2023/10/05 09:30:22;;;;;;;2.90;2.60;;;20.30;42.50;;;;;;20639;6853;117462;-76
2023/10/05 09:32:48;;;;;;;3.00;2.70;;;20.50;42.10;;;;;;20409;6853;287172;-77
2023/10/05 09:35:26;;;;;;;4.07;3.03;;;20.40;41.60;;;;;;20428;6853;314260;-77
2023/10/05 09:37:52;;;;;;;3.17;2.97;;;20.90;40.90;;;;;;20453;6853;284058;-77
2023/10/05 09:40:17;;;;;;;3.05;2.85;;;21.10;40.30;;;;;;20444;6853;301611;-77
2023/10/05 09:42:44;;;;;;;2.87;2.67;;;21.20;40.50;;;;;;20668;6853;117765;-79
2023/10/05 09:45:12;;;;;;;3.97;3.10;;;21.20;40.00;;;;;;20438;6853;309070;-77
2023/10/05 09:47:35;;;;;;;3.27;2.87;;;21.20;39.80;;;;;;20454;6853;279241;-79
2023/10/05 09:50:01;;;;;;;3.90;3.08;;;21.30;39.50;;;;;;20455;6853;281027;-77
2023/10/05 09:52:38;;;;;;;4.23;3.00;;;21.40;39.50;;;;;;20418;6853;285304;-78
2023/10/05 09:55:04;;;;;;;3.85;3.40;;;21.50;39.00;;;;;;20424;6853;342423;-79
2023/10/05 09:57:29;;;;;;;4.87;3.25;;;21.50;38.80;;;;;;20445;6853;309303;-77
2023/10/05 09:59:57;;;;;;;4.80;3.17;;;21.50;39.00;;;;;;20447;6853;313714;-79
2023/10/05 10:02:23;;;;;;;4.63;3.03;;;21.50;38.90;;;;;;20458;6853;284944;-78
2023/10/05 10:04:50;;;;;;;4.03;2.90;;;21.60;38.90;;;;;;20439;6853;314547;-78
2023/10/05 10:07:15;;;;;;;4.73;2.90;;;21.60;38.70;;;;;;20477;6853;279338;-79
2023/10/05 10:09:41;;;;;;;3.30;3.00;;;21.60;38.70;;;;;;20466;6853;308670;-78
2023/10/05 10:12:10;;;;;;;4.37;3.20;;;21.70;38.70;;;;;;20444;6853;313706;-83
2023/10/05 10:14:33;;;;;;;3.17;2.40;;;21.70;38.50;;;;;;20662;6853;120903;-78
2023/10/05 10:17:02;;;;;;;4.47;2.90;;;21.50;38.70;;;;;;20444;6851;342186;-79
2023/10/05 10:19:28;;;;;;;3.15;2.80;;;21.60;38.70;;;;;;20459;6852;313266;-79
2023/10/05 10:21:59;;;;;;;2.50;2.22;;;21.70;38.70;;;;;;20663;6852;121553;-78
2023/10/05 10:24:19;;;;;;;2.73;2.20;;;21.60;38.90;;;;;;20647;6852;118181;-78
2023/10/05 10:27:07;;;;;;;5.30;2.90;;;21.40;39.30;;;;;;20459;6853;279880;-79
2023/10/05 10:29:23;;;;;;;3.17;2.70;;;21.40;40.10;;;;;;20634;6853;118595;-78
2023/10/05 10:32:12;;;;;;;5.43;3.00;;;21.50;40.20;;;;;;20670;6853;117225;-78
2023/10/05 10:34:49;;;;;;;4.10;2.57;;;21.40;40.20;;;;;;20503;6853;118039;-84
2023/10/05 10:37:10;;;;;;;4.20;3.00;;;21.20;40.20;;;;;;20430;6853;309971;-79
2023/10/05 10:39:38;;;;;;;3.40;2.93;;;21.40;39.40;;;;;;20454;6853;324091;-77
2023/10/05 10:42:04;;;;;;;3.60;2.70;;;21.80;39.40;;;;;;20455;6853;278771;-76
2023/10/05 10:44:28;;;;;;;4.17;2.70;;;22.10;38.60;;;;;;20666;6853;121321;-84
2023/10/05 10:47:08;;;;;;;2.53;2.28;;;22.10;38.60;;;;;;20432;6853;311844;-75
2023/10/05 10:49:34;;;;;;;4.57;3.00;;;22.10;37.80;;;;;;20411;6853;285085;-76
2023/10/05 10:51:58;;;;;;;4.37;3.10;;;22.20;38.10;;;;;;20453;6853;283536;-76
2023/10/05 10:54:24;;;;;;;2.92;2.62;;;22.30;38.50;;;;;;20646;6853;124203;-76
2023/10/05 10:56:49;;;;;;;3.70;3.20;;;22.30;38.70;;;;;;20421;6853;314894;-77
2023/10/05 10:59:19;;;;;;;4.87;3.28;;;22.30;37.90;;;;;;20455;6853;342287;-77
2023/10/05 11:01:44;;;;;;;5.72;3.28;;;22.40;37.30;;;;;;20634;6853;117440;-76
2023/10/05 11:04:23;;;;;;;3.53;3.23;;;22.40;37.90;;;;;;20438;6853;310858;-76
2023/10/05 11:06:36;;;;;;;5.13;3.40;;;22.40;37.90;;;;;;20418;6853;279188;-76
2023/10/05 11:09:09;;;;;;;3.30;3.00;;;22.60;38.20;;;;;;20649;6853;117969;-77
2023/10/05 11:11:27;;;;;;;5.03;3.10;;;22.60;38.30;;;;;;20441;6853;281263;-76
2023/10/05 11:13:56;;;;;;;3.95;3.55;;;22.50;38.20;;;;;;20464;6853;312722;-76
2023/10/05 11:16:19;;;;;;;3.93;3.20;;;22.60;37.40;;;;;;20579;6870;117880;-76
2023/10/05 11:19:03;;;;;;;7.72;3.25;;;22.60;37.70;;;;;;20667;6855;117682;-76
2023/10/05 11:21:33;;;;;;;4.00;3.50;;;22.30;37.90;;;;;;20455;6853;284881;-76
2023/10/05 11:23:57;;;;;;;5.45;3.30;;;22.30;37.50;;;;;;20446;6853;339590;-76
2023/10/05 11:26:56;;;;;;;5.80;3.60;;;22.50;37.30;;;;;;20459;6853;279065;-76
2023/10/05 11:29:55;;;;;;;5.40;3.90;;;22.70;36.90;;;;;;20597;6852;117975;-77
2023/10/05 11:31:34;;;;;;;7.07;4.97;;;22.60;36.90;;;;;;20054;6852;338232;-76
2023/10/05 11:34:00;;;;;;;6.30;4.25;;;22.60;34.00;;;;;;20658;6852;117436;-76
2023/10/05 11:36:27;;;;;;;5.17;3.90;;;22.50;34.80;;;;;;20656;6852;121721;-76
2023/10/05 11:38:57;;;;;;;6.17;4.73;;;22.30;35.30;;;;;;20414;6853;312364;-78
2023/10/05 11:41:23;;;;;;;6.20;4.75;;;22.40;34.10;;;;;;20398;6868;313403;-77
2023/10/05 11:43:45;;;;;;;6.70;4.83;;;22.60;33.70;;;;;;20407;6868;279888;-76
2023/10/05 11:46:29;;;;;;;6.40;4.40;;;22.70;33.40;;;;;;20622;6868;118523;-76
2023/10/05 11:48:57;;;;;;;6.37;4.60;;;22.60;34.00;;;;;;20381;6868;297179;-77
2023/10/05 11:51:26;;;;;;;4.50;4.10;;;22.60;33.30;;;;;;20586;6868;117726;-76
2023/10/05 11:53:44;;;;;;;4.97;4.40;;;22.50;33.90;;;;;;20379;6868;309041;-76
2023/10/05 11:56:11;;;;;;;7.53;4.37;;;22.50;33.70;;;;;;20617;6868;118168;-76
2023/10/05 11:58:37;;;;;;;6.13;3.80;;;22.40;34.20;;;;;;20623;6868;117401;-77
2023/10/05 12:01:05;;;;;;;4.63;3.77;;;21.90;35.10;;;;;;20603;6868;145777;-76
2023/10/05 12:03:30;;;;;;;6.80;4.10;;;21.90;35.00;;;;;;20618;6868;117742;-75
2023/10/05 12:06:08;;;;;;;6.00;4.23;;;21.90;35.40;;;;;;20409;6869;330028;-74
2023/10/05 12:08:23;;;;;;;5.53;4.30;;;21.80;35.30;;;;;;20325;6869;308192;-75
2023/10/05 12:10:49;;;;;;;5.60;3.97;;;22.10;34.70;;;;;;20604;6869;118009;-75
2023/10/05 12:13:15;;;;;;;6.23;3.70;;;22.10;35.00;;;;;;20628;6869;118237;-74
2023/10/05 12:15:42;;;;;;;5.63;4.57;;;22.00;35.10;;;;;;20411;6869;288054;-75
2023/10/05 12:18:12;;;;;;;5.85;4.43;;;22.00;35.10;;;;;;20413;6869;311291;-75
2023/10/05 12:20:33;;;;;;;5.50;4.40;;;22.40;35.20;;;;;;20399;6869;280758;-74
2023/10/05 12:22:59;;;;;;;6.30;4.30;;;22.90;33.60;;;;;;20389;6869;308108;-75
2023/10/05 12:25:27;;;;;;;9.80;4.37;;;22.90;33.60;;;;;;20614;6869;118972;-75
2023/10/05 12:27:51;;;;;;;4.67;3.40;;;22.80;33.80;;;;;;20393;6869;282763;-74
2023/10/05 12:30:16;;;;;;;6.25;4.00;;;22.80;34.20;;;;;;20565;6869;118213;-74
2023/10/05 12:32:41;;;;;;;5.10;4.10;;;22.70;34.50;;;;;;20416;6869;278776;-75
2023/10/05 12:35:07;;;;;;;4.70;3.80;;;22.70;34.70;;;;;;20398;6869;283960;-78
2023/10/05 12:37:33;;;;;;;4.47;3.70;;;22.90;34.50;;;;;;20515;6869;277623;-75
2023/10/05 12:40:11;;;;;;;4.47;4.07;;;23.10;34.30;;;;;;20507;6867;278397;-74
2023/10/05 12:42:24;;;;;;;4.70;3.78;;;23.30;33.80;;;;;;20474;6868;339628;-74
2023/10/05 12:44:51;;;;;;;5.13;4.03;;;23.50;33.60;;;;;;20695;6868;117763;-74
2023/10/05 12:47:15;;;;;;;5.07;3.50;;;23.40;33.80;;;;;;20713;6868;116852;-74
2023/10/05 12:49:40;;;;;;;3.43;3.13;;;23.10;34.10;;;;;;20661;6868;117863;-75
2023/10/05 12:52:08;;;;;;;4.45;3.30;;;22.90;34.40;;;;;;20621;6868;117441;-74
2023/10/05 12:54:34;;;;;;;5.07;4.10;;;22.70;34.50;;;;;;20403;6868;309449;-78